Scf Explorer — WDE2863 — position and weather

sailwx.info

Track history (hours):
 
Tides and Currents Weather Stations Pressure Air Temp Water Temp Dewpoint Dewpoint Depression Visibility Wind Speed Wind Dir Waves Ship Positions

Scf Explorer

Owner: SCF Waxler Marine LLC, St Rose, LA. More information available from US FCC via Universal Licensing System and Coast Guard Vessel Documentation Center.

Last reported at 2014-Dec-20 19:08 UTC. Time now 2014-Dec-22 02:47 UTC.
Position N 29°12' W 095°04'.

Length 35 m; draft 2.3 m.

Type: Ship (hazmat cat B). MMSI: 367330620.

Date/timePositionNaut miles runAvg speedWind from/ knotsBaromVisibWave heightAir tempDewpointWater temp
2014-Dec-20 19:08N 29°12' W 095°04'3 4.3
2014-Dec-20 18:28N 29°13' W 095°02'4 4.7
2014-Dec-20 17:32N 29°17' W 094°59'4 4.4
2014-Dec-20 16:34N 29°17' W 094°54'5 0.1
2014-Dec-19 01:08N 29°22' W 094°55'0 0.0
2014-Dec-18 23:15N 29°22' W 094°55'0 0.0
2014-Dec-18 22:33N 29°22' W 094°55'0 0.0
2014-Dec-18 21:33N 29°22' W 094°55'0 0.0
2014-Dec-18 20:34N 29°22' W 094°55'0 0.0
2014-Dec-18 19:33N 29°22' W 094°55'0 0.0
2014-Dec-18 18:33N 29°22' W 094°55'0 0.0
2014-Dec-18 17:31N 29°22' W 094°55'0 0.1
2014-Dec-18 16:26N 29°22' W 094°55'0 0.0
2014-Dec-18 15:33N 29°22' W 094°55'6 0.5
2014-Dec-18 03:17N 29°26' W 094°50'5 7.2
2014-Dec-18 02:33N 29°31' W 094°53'7 7.3
2014-Dec-18 01:33N 29°37' W 094°57'7 6.9
2014-Dec-18 00:29N 29°44' W 095°01'4 3.5
2014-Dec-17 23:12N 29°47' W 095°04'2 0.8
2014-Dec-17 20:19N 29°46' W 095°06'0 0.0
2014-Dec-17 19:25N 29°46' W 095°06'0 0.0
2014-Dec-17 18:21N 29°46' W 095°06'0 0.0
2014-Dec-17 17:27N 29°46' W 095°06'0 0.0
2014-Dec-17 16:15N 29°46' W 095°06'0 0.0
2014-Dec-17 15:33N 29°46' W 095°06'0 0.0
2014-Dec-17 14:33N 29°46' W 095°06'0 0.0
2014-Dec-16 21:28N 29°46' W 095°06'0 0.0
2014-Dec-16 19:24N 29°46' W 095°06'0 0.0
2014-Dec-16 16:31N 29°46' W 095°06'0 0.0
2014-Dec-16 15:33N 29°46' W 095°06'0 0.0
2014-Dec-16 14:33N 29°46' W 095°06'0 0.0
2014-Dec-16 13:33N 29°46' W 095°06'0 0.0
2014-Dec-16 12:33N 29°46' W 095°06'0 0.0
2014-Dec-16 11:33N 29°46' W 095°06'0 0.0
2014-Dec-16 10:33N 29°46' W 095°06'0 0.0
2014-Dec-16 09:33N 29°46' W 095°06'0 0.0
2014-Dec-16 08:33N 29°46' W 095°06'0 0.0
2014-Dec-16 07:33N 29°46' W 095°06'0 0.0
2014-Dec-16 06:33N 29°46' W 095°06'0 0.0
2014-Dec-16 05:33N 29°46' W 095°06'0 0.0
2014-Dec-16 04:33N 29°46' W 095°06'0 0.0
2014-Dec-16 03:31N 29°46' W 095°06'0 0.0
2014-Dec-16 02:23N 29°46' W 095°06'0 0.0
2014-Dec-16 01:33N 29°46' W 095°06'0 0.0
2014-Dec-16 00:33N 29°46' W 095°06'0 0.0
2014-Dec-15 23:33N 29°46' W 095°06'0 0.0
2014-Dec-15 22:33N 29°46' W 095°06'0 0.0
2014-Dec-15 21:33N 29°46' W 095°06'0 0.0
2014-Dec-15 20:33N 29°46' W 095°06'0 0.0
2014-Dec-15 19:33N 29°46' W 095°06'0 0.0
2014-Dec-15 18:33N 29°46' W 095°06'0 0.0
2014-Dec-15 17:33N 29°46' W 095°06'0 0.0
2014-Dec-15 16:33N 29°46' W 095°06'0 0.0
2014-Dec-15 15:30N 29°46' W 095°06'0 0.0
2014-Dec-15 14:33N 29°46' W 095°06'0 0.0
2014-Dec-15 13:30N 29°46' W 095°06'0 0.0
2014-Dec-14 23:15N 29°46' W 095°06'0 0.0
2014-Dec-14 22:33N 29°46' W 095°06'0 0.0
2014-Dec-14 21:33N 29°46' W 095°06'0 0.0
2014-Dec-14 20:33N 29°46' W 095°06'0 0.0
2014-Dec-14 19:33N 29°46' W 095°06'0 0.0
2014-Dec-14 18:19N 29°46' W 095°06'0 0.0
2014-Dec-14 17:32N 29°46' W 095°06'0 0.0
2014-Dec-14 16:31N 29°46' W 095°06'0 0.0
2014-Dec-14 15:12N 29°46' W 095°06'0 0.0
2014-Dec-14 13:32N 29°46' W 095°06'0 0.0
2014-Dec-13 22:32N 29°46' W 095°06'0 0.0
2014-Dec-13 21:29N 29°46' W 095°06'1 0.3
2014-Dec-13 18:33N 29°46' W 095°05'2 1.9
2014-Dec-13 17:33N 29°47' W 095°04'0 0.1
2014-Dec-13 16:33N 29°47' W 095°04'0 0.0
2014-Dec-13 15:33N 29°47' W 095°04'0 0.0
2014-Dec-13 14:33N 29°47' W 095°04'2 1.7
2014-Dec-13 13:33N 29°46' W 095°04'3 3.2
2014-Dec-13 12:33N 29°44' W 095°07'4 4.0
2014-Dec-13 11:33N 29°44' W 095°12'0 0.0
2014-Dec-13 10:33N 29°44' W 095°12'0 0.0
2014-Dec-13 09:33N 29°44' W 095°12'0 0.0
2014-Dec-13 08:33N 29°44' W 095°12'0 0.0
2014-Dec-13 07:33N 29°44' W 095°12'0 0.0
2014-Dec-13 06:33N 29°44' W 095°12'0 0.0
2014-Dec-13 05:33N 29°44' W 095°12'0 0.0
2014-Dec-13 04:33N 29°44' W 095°12'0 0.0
2014-Dec-13 03:33N 29°44' W 095°12'0 0.0
2014-Dec-13 02:33N 29°44' W 095°12'0 0.0
2014-Dec-13 01:33N 29°44' W 095°12'0 0.0
2014-Dec-13 00:33N 29°44' W 095°12'0 0.0
2014-Dec-12 23:33N 29°44' W 095°12'0 0.0
2014-Dec-12 22:33N 29°44' W 095°12'0 0.0
2014-Dec-12 21:33N 29°44' W 095°12'0 0.0
2014-Dec-12 20:33N 29°44' W 095°12'0 0.0
2014-Dec-12 19:33N 29°44' W 095°12'0 0.0
2014-Dec-12 18:33N 29°44' W 095°12'0 0.0
2014-Dec-12 17:33N 29°44' W 095°12'0 0.0
2014-Dec-12 16:33N 29°44' W 095°12'0 0.0
2014-Dec-12 15:33N 29°44' W 095°12'3 2.8
2014-Dec-12 14:33N 29°44' W 095°09'5 4.6
2014-Dec-12 13:33N 29°47' W 095°05'0 0.1
2014-Dec-12 12:33N 29°47' W 095°05'1 0.8
2014-Dec-12 11:33N 29°47' W 095°04'2 1.9
2014-Dec-12 10:33N 29°46' W 095°06'1 0.6
2014-Dec-12 09:33N 29°46' W 095°06'0 0.0
2014-Dec-12 08:33N 29°46' W 095°06'0 0.0
2014-Dec-12 07:33N 29°46' W 095°06'0 0.0
2014-Dec-12 06:33N 29°46' W 095°06'0 0.0
2014-Dec-12 05:33N 29°46' W 095°06'0 0.0
2014-Dec-12 04:33N 29°46' W 095°06'0 0.0
2014-Dec-12 03:33N 29°46' W 095°06'0 0.0
2014-Dec-12 02:33N 29°46' W 095°06'0 0.0
2014-Dec-12 01:32N 29°46' W 095°06'0 0.0
2014-Dec-12 00:27N 29°46' W 095°06'0 0.0
2014-Dec-11 23:33N 29°46' W 095°06'0 0.0
2014-Dec-11 22:31N 29°46' W 095°06'0 0.0
2014-Dec-11 21:33N 29°46' W 095°06'0 0.0
2014-Dec-11 20:33N 29°46' W 095°06'0 0.0
2014-Dec-11 19:31N 29°46' W 095°06'0 0.0
2014-Dec-11 18:23N 29°46' W 095°06'0 0.0
2014-Dec-11 17:32N 29°46' W 095°06'0 0.0
2014-Dec-11 16:33N 29°46' W 095°06'0 0.0
2014-Dec-11 15:33N 29°46' W 095°06'0 0.0
2014-Dec-11 14:31N 29°46' W 095°06'0 0.0
2014-Dec-11 13:33N 29°46' W 095°06'0 0.0
2014-Dec-11 12:30N 29°46' W 095°06'0 0.0
2014-Dec-11 11:33N 29°46' W 095°06'0 0.0
2014-Dec-11 10:33N 29°46' W 095°06'0 0.0
2014-Dec-11 09:33N 29°46' W 095°06'0 0.0
2014-Dec-11 08:33N 29°46' W 095°06'0 0.0
2014-Dec-11 07:33N 29°46' W 095°06'0 0.0
2014-Dec-11 06:33N 29°46' W 095°06'0 0.0
2014-Dec-11 05:33N 29°46' W 095°06'0 0.0
2014-Dec-11 04:33N 29°46' W 095°06'0 0.0
2014-Dec-11 03:33N 29°46' W 095°06'0 0.0
2014-Dec-11 02:33N 29°46' W 095°06'0 0.0
2014-Dec-11 01:33N 29°46' W 095°06'0 0.0
2014-Dec-11 00:33N 29°46' W 095°06'0 0.0
2014-Dec-10 23:33N 29°46' W 095°06'0 0.0
2014-Dec-10 22:33N 29°46' W 095°06'0 0.0
2014-Dec-10 21:32N 29°46' W 095°06'0 0.0
2014-Dec-10 20:33N 29°46' W 095°06'0 0.0
2014-Dec-10 19:33N 29°46' W 095°06'  
Track history (hours):
 
Tides and Currents Weather Stations Pressure Air Temp Water Temp Dewpoint Dewpoint Depression Visibility Wind Speed Wind Dir Waves Ship Positions

Scf Explorer

Owner: SCF Waxler Marine LLC, St Rose, LA. More information available from US FCC via Universal Licensing System and Coast Guard Vessel Documentation Center.

Last reported at 2014-Dec-20 19:08 UTC. Time now 2014-Dec-22 02:47 UTC.
Position N 29°12' W 095°04'.

Length 35 m; draft 2.3 m.

Type: Ship (hazmat cat B). MMSI: 367330620.

Date/timePositionNaut miles runAvg speedWind from/ knotsBaromVisibWave heightAir tempDewpointWater temp
2014-Dec-20 19:08N 29°12' W 095°04'3 4.3
2014-Dec-20 18:28N 29°13' W 095°02'4 4.7
2014-Dec-20 17:32N 29°17' W 094°59'4 4.4
2014-Dec-20 16:34N 29°17' W 094°54'5 0.1
2014-Dec-19 01:08N 29°22' W 094°55'0 0.0
2014-Dec-18 23:15N 29°22' W 094°55'0 0.0
2014-Dec-18 22:33N 29°22' W 094°55'0 0.0
2014-Dec-18 21:33N 29°22' W 094°55'0 0.0
2014-Dec-18 20:34N 29°22' W 094°55'0 0.0
2014-Dec-18 19:33N 29°22' W 094°55'0 0.0
2014-Dec-18 18:33N 29°22' W 094°55'0 0.0
2014-Dec-18 17:31N 29°22' W 094°55'0 0.1
2014-Dec-18 16:26N 29°22' W 094°55'0 0.0
2014-Dec-18 15:33N 29°22' W 094°55'6 0.5
2014-Dec-18 03:17N 29°26' W 094°50'5 7.2
2014-Dec-18 02:33N 29°31' W 094°53'7 7.3
2014-Dec-18 01:33N 29°37' W 094°57'7 6.9
2014-Dec-18 00:29N 29°44' W 095°01'4 3.5
2014-Dec-17 23:12N 29°47' W 095°04'2 0.8
2014-Dec-17 20:19N 29°46' W 095°06'0 0.0
2014-Dec-17 19:25N 29°46' W 095°06'0 0.0
2014-Dec-17 18:21N 29°46' W 095°06'0 0.0
2014-Dec-17 17:27N 29°46' W 095°06'0 0.0
2014-Dec-17 16:15N 29°46' W 095°06'0 0.0
2014-Dec-17 15:33N 29°46' W 095°06'0 0.0
2014-Dec-17 14:33N 29°46' W 095°06'0 0.0
2014-Dec-16 21:28N 29°46' W 095°06'0 0.0
2014-Dec-16 19:24N 29°46' W 095°06'0 0.0
2014-Dec-16 16:31N 29°46' W 095°06'0 0.0
2014-Dec-16 15:33N 29°46' W 095°06'0 0.0
2014-Dec-16 14:33N 29°46' W 095°06'0 0.0
2014-Dec-16 13:33N 29°46' W 095°06'0 0.0
2014-Dec-16 12:33N 29°46' W 095°06'0 0.0
2014-Dec-16 11:33N 29°46' W 095°06'0 0.0
2014-Dec-16 10:33N 29°46' W 095°06'0 0.0
2014-Dec-16 09:33N 29°46' W 095°06'0 0.0
2014-Dec-16 08:33N 29°46' W 095°06'0 0.0
2014-Dec-16 07:33N 29°46' W 095°06'0 0.0
2014-Dec-16 06:33N 29°46' W 095°06'0 0.0
2014-Dec-16 05:33N 29°46' W 095°06'0 0.0
2014-Dec-16 04:33N 29°46' W 095°06'0 0.0
2014-Dec-16 03:31N 29°46' W 095°06'0 0.0
2014-Dec-16 02:23N 29°46' W 095°06'0 0.0
2014-Dec-16 01:33N 29°46' W 095°06'0 0.0
2014-Dec-16 00:33N 29°46' W 095°06'0 0.0
2014-Dec-15 23:33N 29°46' W 095°06'0 0.0
2014-Dec-15 22:33N 29°46' W 095°06'0 0.0
2014-Dec-15 21:33N 29°46' W 095°06'0 0.0
2014-Dec-15 20:33N 29°46' W 095°06'0 0.0
2014-Dec-15 19:33N 29°46' W 095°06'0 0.0
2014-Dec-15 18:33N 29°46' W 095°06'0 0.0
2014-Dec-15 17:33N 29°46' W 095°06'0 0.0
2014-Dec-15 16:33N 29°46' W 095°06'0 0.0
2014-Dec-15 15:30N 29°46' W 095°06'0 0.0
2014-Dec-15 14:33N 29°46' W 095°06'0 0.0
2014-Dec-15 13:30N 29°46' W 095°06'0 0.0
2014-Dec-14 23:15N 29°46' W 095°06'0 0.0
2014-Dec-14 22:33N 29°46' W 095°06'0 0.0
2014-Dec-14 21:33N 29°46' W 095°06'0 0.0
2014-Dec-14 20:33N 29°46' W 095°06'0 0.0
2014-Dec-14 19:33N 29°46' W 095°06'0 0.0
2014-Dec-14 18:19N 29°46' W 095°06'0 0.0
2014-Dec-14 17:32N 29°46' W 095°06'0 0.0
2014-Dec-14 16:31N 29°46' W 095°06'0 0.0
2014-Dec-14 15:12N 29°46' W 095°06'0 0.0
2014-Dec-14 13:32N 29°46' W 095°06'0 0.0
2014-Dec-13 22:32N 29°46' W 095°06'0 0.0
2014-Dec-13 21:29N 29°46' W 095°06'1 0.3
2014-Dec-13 18:33N 29°46' W 095°05'2 1.9
2014-Dec-13 17:33N 29°47' W 095°04'0 0.1
2014-Dec-13 16:33N 29°47' W 095°04'0 0.0
2014-Dec-13 15:33N 29°47' W 095°04'0 0.0
2014-Dec-13 14:33N 29°47' W 095°04'2 1.7
2014-Dec-13 13:33N 29°46' W 095°04'3 3.2
2014-Dec-13 12:33N 29°44' W 095°07'4 4.0
2014-Dec-13 11:33N 29°44' W 095°12'0 0.0
2014-Dec-13 10:33N 29°44' W 095°12'0 0.0
2014-Dec-13 09:33N 29°44' W 095°12'0 0.0
2014-Dec-13 08:33N 29°44' W 095°12'0 0.0
2014-Dec-13 07:33N 29°44' W 095°12'0 0.0
2014-Dec-13 06:33N 29°44' W 095°12'0 0.0
2014-Dec-13 05:33N 29°44' W 095°12'0 0.0
2014-Dec-13 04:33N 29°44' W 095°12'0 0.0
2014-Dec-13 03:33N 29°44' W 095°12'0 0.0
2014-Dec-13 02:33N 29°44' W 095°12'0 0.0
2014-Dec-13 01:33N 29°44' W 095°12'0 0.0
2014-Dec-13 00:33N 29°44' W 095°12'0 0.0
2014-Dec-12 23:33N 29°44' W 095°12'0 0.0
2014-Dec-12 22:33N 29°44' W 095°12'0 0.0
2014-Dec-12 21:33N 29°44' W 095°12'0 0.0
2014-Dec-12 20:33N 29°44' W 095°12'0 0.0
2014-Dec-12 19:33N 29°44' W 095°12'0 0.0
2014-Dec-12 18:33N 29°44' W 095°12'0 0.0
2014-Dec-12 17:33N 29°44' W 095°12'0 0.0
2014-Dec-12 16:33N 29°44' W 095°12'0 0.0
2014-Dec-12 15:33N 29°44' W 095°12'3 2.8
2014-Dec-12 14:33N 29°44' W 095°09'5 4.6
2014-Dec-12 13:33N 29°47' W 095°05'0 0.1
2014-Dec-12 12:33N 29°47' W 095°05'1 0.8
2014-Dec-12 11:33N 29°47' W 095°04'2 1.9
2014-Dec-12 10:33N 29°46' W 095°06'1 0.6
2014-Dec-12 09:33N 29°46' W 095°06'0 0.0
2014-Dec-12 08:33N 29°46' W 095°06'0 0.0
2014-Dec-12 07:33N 29°46' W 095°06'0 0.0
2014-Dec-12 06:33N 29°46' W 095°06'0 0.0
2014-Dec-12 05:33N 29°46' W 095°06'0 0.0
2014-Dec-12 04:33N 29°46' W 095°06'0 0.0
2014-Dec-12 03:33N 29°46' W 095°06'0 0.0
2014-Dec-12 02:33N 29°46' W 095°06'0 0.0
2014-Dec-12 01:32N 29°46' W 095°06'0 0.0
2014-Dec-12 00:27N 29°46' W 095°06'0 0.0
2014-Dec-11 23:33N 29°46' W 095°06'0 0.0
2014-Dec-11 22:31N 29°46' W 095°06'0 0.0
2014-Dec-11 21:33N 29°46' W 095°06'0 0.0
2014-Dec-11 20:33N 29°46' W 095°06'0 0.0
2014-Dec-11 19:31N 29°46' W 095°06'0 0.0
2014-Dec-11 18:23N 29°46' W 095°06'0 0.0
2014-Dec-11 17:32N 29°46' W 095°06'0 0.0
2014-Dec-11 16:33N 29°46' W 095°06'0 0.0
2014-Dec-11 15:33N 29°46' W 095°06'0 0.0
2014-Dec-11 14:31N 29°46' W 095°06'0 0.0
2014-Dec-11 13:33N 29°46' W 095°06'0 0.0
2014-Dec-11 12:30N 29°46' W 095°06'0 0.0
2014-Dec-11 11:33N 29°46' W 095°06'0 0.0
2014-Dec-11 10:33N 29°46' W 095°06'0 0.0
2014-Dec-11 09:33N 29°46' W 095°06'0 0.0
2014-Dec-11 08:33N 29°46' W 095°06'0 0.0
2014-Dec-11 07:33N 29°46' W 095°06'0 0.0
2014-Dec-11 06:33N 29°46' W 095°06'0 0.0
2014-Dec-11 05:33N 29°46' W 095°06'0 0.0
2014-Dec-11 04:33N 29°46' W 095°06'0 0.0
2014-Dec-11 03:33N 29°46' W 095°06'0 0.0
2014-Dec-11 02:33N 29°46' W 095°06'0 0.0
2014-Dec-11 01:33N 29°46' W 095°06'0 0.0
2014-Dec-11 00:33N 29°46' W 095°06'0 0.0
2014-Dec-10 23:33N 29°46' W 095°06'0 0.0
2014-Dec-10 22:33N 29°46' W 095°06'0 0.0
2014-Dec-10 21:32N 29°46' W 095°06'0 0.0
2014-Dec-10 20:33N 29°46' W 095°06'0 0.0
2014-Dec-10 19:33N 29°46' W 095°06'  

Dump ship's entire track history